sensor_id;sensor_type;location;lat;lon;timestamp;P1;durP1;ratioP1;P2;durP2;ratioP2
65162;SDS011;51751;55.714;37.436;2023-08-30T00:01:31;12.15;;;8.40;;
65162;SDS011;51751;55.714;37.436;2023-08-30T00:03:57;12.15;;;8.43;;
65162;SDS011;51751;55.714;37.436;2023-08-30T00:06:23;12.07;;;8.15;;
65162;SDS011;51751;55.714;37.436;2023-08-30T00:08:49;13.40;;;8.70;;
65162;SDS011;51751;55.714;37.436;2023-08-30T00:11:15;11.25;;;8.23;;
65162;SDS011;51751;55.714;37.436;2023-08-30T00:13:41;10.23;;;8.32;;
65162;SDS011;51751;55.714;37.436;2023-08-30T00:16:07;12.27;;;8.52;;
65162;SDS011;51751;55.714;37.436;2023-08-30T00:18:34;10.40;;;8.27;;
65162;SDS011;51751;55.714;37.436;2023-08-30T00:21:06;10.98;;;8.27;;
65162;SDS011;51751;55.714;37.436;2023-08-30T00:23:35;12.02;;;9.13;;
65162;SDS011;51751;55.714;37.436;2023-08-30T00:26:01;12.10;;;8.80;;
65162;SDS011;51751;55.714;37.436;2023-08-30T00:28:27;11.88;;;8.55;;
65162;SDS011;51751;55.714;37.436;2023-08-30T00:30:54;12.18;;;9.35;;
65162;SDS011;51751;55.714;37.436;2023-08-30T00:33:26;11.68;;;8.40;;
65162;SDS011;51751;55.714;37.436;2023-08-30T00:35:58;12.85;;;8.15;;
65162;SDS011;51751;55.714;37.436;2023-08-30T00:38:26;10.90;;;8.45;;
65162;SDS011;51751;55.714;37.436;2023-08-30T00:40:54;12.20;;;9.13;;
65162;SDS011;51751;55.714;37.436;2023-08-30T00:43:20;11.32;;;8.75;;
65162;SDS011;51751;55.714;37.436;2023-08-30T00:45:46;13.05;;;9.73;;
65162;SDS011;51751;55.714;37.436;2023-08-30T00:48:13;12.27;;;8.77;;
65162;SDS011;51751;55.714;37.436;2023-08-30T00:50:41;12.18;;;9.25;;
65162;SDS011;51751;55.714;37.436;2023-08-30T00:53:07;11.65;;;9.18;;
65162;SDS011;51751;55.714;37.436;2023-08-30T00:55:37;12.80;;;9.75;;
65162;SDS011;51751;55.714;37.436;2023-08-30T00:58:04;13.38;;;9.68;;
65162;SDS011;51751;55.714;37.436;2023-08-30T01:03:26;12.93;;;10.20;;
65162;SDS011;51751;55.714;37.436;2023-08-30T01:05:55;15.75;;;10.70;;
65162;SDS011;51751;55.714;37.436;2023-08-30T01:08:31;13.75;;;9.93;;
65162;SDS011;51751;55.714;37.436;2023-08-30T01:14:00;14.20;;;10.70;;
65162;SDS011;51751;55.714;37.436;2023-08-30T01:16:32;12.82;;;10.68;;
65162;SDS011;51751;55.714;37.436;2023-08-30T01:18:58;12.77;;;10.43;;
65162;SDS011;51751;55.714;37.436;2023-08-30T01:21:48;13.10;;;10.68;;
65162;SDS011;51751;55.714;37.436;2023-08-30T01:24:22;13.52;;;10.68;;
65162;SDS011;51751;55.714;37.436;2023-08-30T01:29:35;12.95;;;10.23;;
65162;SDS011;51751;55.714;37.436;2023-08-30T01:32:04;14.15;;;10.68;;
65162;SDS011;51751;55.714;37.436;2023-08-30T01:34:31;14.80;;;10.77;;
65162;SDS011;51751;55.714;37.436;2023-08-30T01:36:59;13.20;;;10.18;;
65162;SDS011;51751;55.714;37.436;2023-08-30T01:39:26;13.00;;;10.48;;
65162;SDS011;51751;55.714;37.436;2023-08-30T01:42:14;12.35;;;10.90;;
65162;SDS011;51751;55.714;37.436;2023-08-30T01:44:48;13.63;;;11.30;;
65162;SDS011;51751;55.714;37.436;2023-08-30T01:47:18;12.20;;;10.73;;
65162;SDS011;51751;55.714;37.436;2023-08-30T01:49:45;13.75;;;11.13;;
65162;SDS011;51751;55.714;37.436;2023-08-30T01:52:12;14.88;;;10.93;;
65162;SDS011;51751;55.714;37.436;2023-08-30T01:54:43;16.90;;;10.10;;
65162;SDS011;51751;55.714;37.436;2023-08-30T01:57:13;14.30;;;11.32;;
65162;SDS011;51751;55.714;37.436;2023-08-30T01:59:39;14.48;;;10.70;;
65162;SDS011;51751;55.714;37.436;2023-08-30T02:02:05;14.57;;;10.68;;
65162;SDS011;51751;55.714;37.436;2023-08-30T02:04:32;13.75;;;11.02;;
65162;SDS011;51751;55.714;37.436;2023-08-30T02:07:00;13.27;;;11.15;;
65162;SDS011;51751;55.714;37.436;2023-08-30T02:12:14;13.05;;;10.85;;
65162;SDS011;51751;55.714;37.436;2023-08-30T02:14:47;15.40;;;11.40;;
65162;SDS011;51751;55.714;37.436;2023-08-30T02:17:15;15.55;;;11.98;;
65162;SDS011;51751;55.714;37.436;2023-08-30T02:19:42;13.88;;;11.55;;
65162;SDS011;51751;55.714;37.436;2023-08-30T02:22:17;13.23;;;11.02;;
65162;SDS011;51751;55.714;37.436;2023-08-30T02:24:46;14.18;;;10.55;;
65162;SDS011;51751;55.714;37.436;2023-08-30T02:27:12;14.00;;;10.98;;
65162;SDS011;51751;55.714;37.436;2023-08-30T02:29:45;13.02;;;10.90;;
65162;SDS011;51751;55.714;37.436;2023-08-30T02:32:11;14.82;;;10.90;;
65162;SDS011;51751;55.714;37.436;2023-08-30T02:34:41;17.23;;;10.38;;
65162;SDS011;51751;55.714;37.436;2023-08-30T02:37:15;12.63;;;10.00;;
65162;SDS011;51751;55.714;37.436;2023-08-30T02:39:44;14.25;;;9.57;;
65162;SDS011;51751;55.714;37.436;2023-08-30T02:42:10;14.38;;;11.20;;
65162;SDS011;51751;55.714;37.436;2023-08-30T02:44:36;15.65;;;11.88;;
65162;SDS011;51751;55.714;37.436;2023-08-30T02:47:02;18.02;;;12.40;;
65162;SDS011;51751;55.714;37.436;2023-08-30T02:49:28;20.15;;;12.23;;
65162;SDS011;51751;55.714;37.436;2023-08-30T02:51:54;16.27;;;11.23;;
65162;SDS011;51751;55.714;37.436;2023-08-30T02:54:20;16.23;;;10.52;;
65162;SDS011;51751;55.714;37.436;2023-08-30T02:56:48;16.05;;;10.43;;
65162;SDS011;51751;55.714;37.436;2023-08-30T02:59:14;16.45;;;11.07;;
65162;SDS011;51751;55.714;37.436;2023-08-30T03:01:40;13.93;;;9.40;;
65162;SDS011;51751;55.714;37.436;2023-08-30T03:04:07;13.70;;;9.77;;
65162;SDS011;51751;55.714;37.436;2023-08-30T03:06:34;14.85;;;9.77;;
65162;SDS011;51751;55.714;37.436;2023-08-30T03:09:01;15.75;;;9.90;;
65162;SDS011;51751;55.714;37.436;2023-08-30T03:11:34;14.07;;;9.73;;
65162;SDS011;51751;55.714;37.436;2023-08-30T03:14:01;12.70;;;9.32;;
65162;SDS011;51751;55.714;37.436;2023-08-30T03:16:27;14.85;;;9.30;;
65162;SDS011;51751;55.714;37.436;2023-08-30T03:18:54;19.98;;;8.70;;
65162;SDS011;51751;55.714;37.436;2023-08-30T03:21:21;12.50;;;9.70;;
65162;SDS011;51751;55.714;37.436;2023-08-30T03:23:47;13.00;;;8.88;;
65162;SDS011;51751;55.714;37.436;2023-08-30T03:26:14;12.95;;;8.60;;
65162;SDS011;51751;55.714;37.436;2023-08-30T03:28:41;13.68;;;8.45;;
65162;SDS011;51751;55.714;37.436;2023-08-30T03:31:26;14.13;;;8.68;;
65162;SDS011;51751;55.714;37.436;2023-08-30T03:33:52;14.27;;;8.13;;
65162;SDS011;51751;55.714;37.436;2023-08-30T03:36:19;15.05;;;9.10;;
65162;SDS011;51751;55.714;37.436;2023-08-30T03:38:48;14.70;;;9.02;;
65162;SDS011;51751;55.714;37.436;2023-08-30T03:41:14;14.50;;;8.40;;
65162;SDS011;51751;55.714;37.436;2023-08-30T03:43:42;13.93;;;8.25;;
65162;SDS011;51751;55.714;37.436;2023-08-30T03:46:08;12.70;;;8.50;;
65162;SDS011;51751;55.714;37.436;2023-08-30T03:48:37;10.85;;;8.57;;
65162;SDS011;51751;55.714;37.436;2023-08-30T03:51:03;14.55;;;8.07;;
65162;SDS011;51751;55.714;37.436;2023-08-30T03:53:32;11.52;;;8.30;;
65162;SDS011;51751;55.714;37.436;2023-08-30T03:56:01;14.88;;;7.85;;
65162;SDS011;51751;55.714;37.436;2023-08-30T03:58:29;12.10;;;8.00;;
65162;SDS011;51751;55.714;37.436;2023-08-30T04:00:55;14.25;;;7.95;;
65162;SDS011;51751;55.714;37.436;2023-08-30T04:03:22;13.45;;;8.00;;
65162;SDS011;51751;55.714;37.436;2023-08-30T04:05:53;14.15;;;8.25;;
65162;SDS011;51751;55.714;37.436;2023-08-30T04:08:23;13.83;;;7.87;;
65162;SDS011;51751;55.714;37.436;2023-08-30T04:10:51;15.05;;;8.02;;
65162;SDS011;51751;55.714;37.436;2023-08-30T04:13:18;13.52;;;7.43;;
65162;SDS011;51751;55.714;37.436;2023-08-30T04:15:44;11.90;;;8.00;;
65162;SDS011;51751;55.714;37.436;2023-08-30T04:18:13;13.15;;;7.20;;
65162;SDS011;51751;55.714;37.436;2023-08-30T04:20:43;11.48;;;7.15;;
65162;SDS011;51751;55.714;37.436;2023-08-30T04:23:12;9.60;;;7.32;;
65162;SDS011;51751;55.714;37.436;2023-08-30T04:25:39;9.82;;;6.97;;
65162;SDS011;51751;55.714;37.436;2023-08-30T04:28:06;9.15;;;7.18;;
65162;SDS011;51751;55.714;37.436;2023-08-30T04:30:32;10.45;;;6.93;;
65162;SDS011;51751;55.714;37.436;2023-08-30T04:32:59;10.30;;;7.40;;
65162;SDS011;51751;55.714;37.436;2023-08-30T04:35:29;8.38;;;6.70;;
65162;SDS011;51751;55.714;37.436;2023-08-30T04:38:00;10.38;;;6.80;;
65162;SDS011;51751;55.714;37.436;2023-08-30T04:40:28;8.85;;;6.78;;
65162;SDS011;51751;55.714;37.436;2023-08-30T04:42:56;9.63;;;6.80;;
65162;SDS011;51751;55.714;37.436;2023-08-30T04:45:26;8.23;;;6.40;;
65162;SDS011;51751;55.714;37.436;2023-08-30T04:47:55;8.18;;;6.38;;
65162;SDS011;51751;55.714;37.436;2023-08-30T04:50:28;8.75;;;5.80;;
65162;SDS011;51751;55.714;37.436;2023-08-30T04:52:57;7.72;;;5.85;;
65162;SDS011;51751;55.714;37.436;2023-08-30T04:55:29;9.85;;;5.85;;
65162;SDS011;51751;55.714;37.436;2023-08-30T04:57:59;9.27;;;6.07;;
65162;SDS011;51751;55.714;37.436;2023-08-30T05:00:28;7.80;;;5.80;;
65162;SDS011;51751;55.714;37.436;2023-08-30T05:02:54;7.47;;;5.53;;
65162;SDS011;51751;55.714;37.436;2023-08-30T05:05:20;7.85;;;6.15;;
65162;SDS011;51751;55.714;37.436;2023-08-30T05:07:48;9.18;;;6.53;;
65162;SDS011;51751;55.714;37.436;2023-08-30T05:10:14;11.98;;;7.25;;
65162;SDS011;51751;55.714;37.436;2023-08-30T05:12:41;8.32;;;6.30;;
65162;SDS011;51751;55.714;37.436;2023-08-30T05:15:09;10.60;;;6.70;;
65162;SDS011;51751;55.714;37.436;2023-08-30T05:17:39;11.82;;;6.53;;
65162;SDS011;51751;55.714;37.436;2023-08-30T05:20:05;8.25;;;6.30;;
65162;SDS011;51751;55.714;37.436;2023-08-30T05:22:32;12.02;;;6.47;;
65162;SDS011;51751;55.714;37.436;2023-08-30T05:24:58;9.52;;;6.20;;
65162;SDS011;51751;55.714;37.436;2023-08-30T05:27:29;10.40;;;5.40;;
65162;SDS011;51751;55.714;37.436;2023-08-30T05:29:55;9.90;;;5.72;;
65162;SDS011;51751;55.714;37.436;2023-08-30T05:32:24;9.45;;;4.68;;
65162;SDS011;51751;55.714;37.436;2023-08-30T05:35:11;7.32;;;4.30;;
65162;SDS011;51751;55.714;37.436;2023-08-30T05:37:58;9.00;;;4.60;;
65162;SDS011;51751;55.714;37.436;2023-08-30T05:40:38;6.45;;;3.88;;
65162;SDS011;51751;55.714;37.436;2023-08-30T05:43:12;7.07;;;4.25;;
65162;SDS011;51751;55.714;37.436;2023-08-30T05:45:38;7.72;;;4.38;;
65162;SDS011;51751;55.714;37.436;2023-08-30T05:48:05;7.57;;;4.00;;
65162;SDS011;51751;55.714;37.436;2023-08-30T05:50:33;7.75;;;4.18;;
65162;SDS011;51751;55.714;37.436;2023-08-30T05:53:02;6.72;;;4.03;;
65162;SDS011;51751;55.714;37.436;2023-08-30T05:55:32;7.97;;;4.20;;
65162;SDS011;51751;55.714;37.436;2023-08-30T05:57:58;8.23;;;4.53;;
65162;SDS011;51751;55.714;37.436;2023-08-30T06:00:24;6.70;;;3.95;;
65162;SDS011;51751;55.714;37.436;2023-08-30T06:02:53;5.45;;;3.70;;
65162;SDS011;51751;55.714;37.436;2023-08-30T06:05:19;5.65;;;3.92;;
65162;SDS011;51751;55.714;37.436;2023-08-30T06:07:46;6.57;;;4.63;;
65162;SDS011;51751;55.714;37.436;2023-08-30T06:10:12;7.70;;;4.72;;
65162;SDS011;51751;55.714;37.436;2023-08-30T06:12:39;9.40;;;4.40;;
65162;SDS011;51751;55.714;37.436;2023-08-30T06:15:11;13.48;;;4.45;;
65162;SDS011;51751;55.714;37.436;2023-08-30T06:17:36;9.00;;;4.10;;
65162;SDS011;51751;55.714;37.436;2023-08-30T06:20:03;12.18;;;4.88;;
65162;SDS011;51751;55.714;37.436;2023-08-30T06:22:30;7.00;;;4.40;;
65162;SDS011;51751;55.714;37.436;2023-08-30T06:24:59;7.15;;;3.97;;
65162;SDS011;51751;55.714;37.436;2023-08-30T06:27:29;5.68;;;4.07;;
65162;SDS011;51751;55.714;37.436;2023-08-30T06:29:55;4.78;;;3.67;;
65162;SDS011;51751;55.714;37.436;2023-08-30T06:32:21;9.85;;;3.97;;
65162;SDS011;51751;55.714;37.436;2023-08-30T06:34:47;6.32;;;3.95;;
65162;SDS011;51751;55.714;37.436;2023-08-30T06:37:13;8.43;;;4.13;;
65162;SDS011;51751;55.714;37.436;2023-08-30T06:39:39;10.15;;;4.10;;
65162;SDS011;51751;55.714;37.436;2023-08-30T06:42:06;9.75;;;4.13;;
65162;SDS011;51751;55.714;37.436;2023-08-30T06:44:32;7.78;;;4.10;;
65162;SDS011;51751;55.714;37.436;2023-08-30T06:46:58;7.63;;;4.07;;
65162;SDS011;51751;55.714;37.436;2023-08-30T06:49:28;9.02;;;3.92;;
65162;SDS011;51751;55.714;37.436;2023-08-30T06:51:57;7.07;;;3.65;;
65162;SDS011;51751;55.714;37.436;2023-08-30T06:54:22;7.30;;;3.88;;
65162;SDS011;51751;55.714;37.436;2023-08-30T06:57:04;7.22;;;3.70;;
65162;SDS011;51751;55.714;37.436;2023-08-30T06:59:32;8.18;;;3.35;;
65162;SDS011;51751;55.714;37.436;2023-08-30T07:01:58;6.32;;;3.40;;
65162;SDS011;51751;55.714;37.436;2023-08-30T07:04:24;8.02;;;3.50;;
65162;SDS011;51751;55.714;37.436;2023-08-30T07:06:50;6.20;;;3.40;;
65162;SDS011;51751;55.714;37.436;2023-08-30T07:09:16;7.22;;;3.80;;
65162;SDS011;51751;55.714;37.436;2023-08-30T07:11:43;7.95;;;3.60;;
65162;SDS011;51751;55.714;37.436;2023-08-30T07:14:10;8.48;;;3.75;;
65162;SDS011;51751;55.714;37.436;2023-08-30T07:16:37;5.43;;;3.25;;
65162;SDS011;51751;55.714;37.436;2023-08-30T07:19:04;11.15;;;3.40;;
65162;SDS011;51751;55.714;37.436;2023-08-30T07:21:30;9.10;;;3.25;;
65162;SDS011;51751;55.714;37.436;2023-08-30T07:23:56;9.95;;;3.60;;
65162;SDS011;51751;55.714;37.436;2023-08-30T07:26:22;6.43;;;3.78;;
65162;SDS011;51751;55.714;37.436;2023-08-30T07:28:49;9.85;;;3.72;;
65162;SDS011;51751;55.714;37.436;2023-08-30T07:31:15;9.82;;;3.72;;
65162;SDS011;51751;55.714;37.436;2023-08-30T07:33:44;12.32;;;3.25;;
65162;SDS011;51751;55.714;37.436;2023-08-30T07:36:10;8.38;;;3.10;;
65162;SDS011;51751;55.714;37.436;2023-08-30T07:38:39;9.85;;;3.40;;
65162;SDS011;51751;55.714;37.436;2023-08-30T07:41:05;10.43;;;3.25;;
65162;SDS011;51751;55.714;37.436;2023-08-30T07:43:31;10.65;;;3.40;;
65162;SDS011;51751;55.714;37.436;2023-08-30T07:45:57;8.68;;;3.38;;
65162;SDS011;51751;55.714;37.436;2023-08-30T07:48:24;8.85;;;3.53;;
65162;SDS011;51751;55.714;37.436;2023-08-30T07:50:50;10.27;;;3.33;;
65162;SDS011;51751;55.714;37.436;2023-08-30T07:53:16;5.88;;;3.10;;
65162;SDS011;51751;55.714;37.436;2023-08-30T07:55:42;14.43;;;3.30;;
65162;SDS011;51751;55.714;37.436;2023-08-30T07:58:08;8.43;;;3.40;;
65162;SDS011;51751;55.714;37.436;2023-08-30T08:00:35;9.38;;;3.60;;
65162;SDS011;51751;55.714;37.436;2023-08-30T08:03:01;12.13;;;3.30;;
65162;SDS011;51751;55.714;37.436;2023-08-30T08:05:28;8.13;;;3.20;;
65162;SDS011;51751;55.714;37.436;2023-08-30T08:07:54;8.23;;;2.90;;
65162;SDS011;51751;55.714;37.436;2023-08-30T08:10:25;12.95;;;3.33;;
65162;SDS011;51751;55.714;37.436;2023-08-30T08:12:51;10.30;;;3.10;;
65162;SDS011;51751;55.714;37.436;2023-08-30T08:15:18;7.82;;;3.80;;
65162;SDS011;51751;55.714;37.436;2023-08-30T08:17:43;15.68;;;4.82;;
65162;SDS011;51751;55.714;37.436;2023-08-30T08:20:10;6.55;;;3.25;;
65162;SDS011;51751;55.714;37.436;2023-08-30T08:22:39;20.70;;;3.83;;
65162;SDS011;51751;55.714;37.436;2023-08-30T08:25:04;13.75;;;3.10;;
65162;SDS011;51751;55.714;37.436;2023-08-30T08:27:30;7.13;;;2.90;;
65162;SDS011;51751;55.714;37.436;2023-08-30T08:29:56;6.32;;;2.40;;
65162;SDS011;51751;55.714;37.436;2023-08-30T08:32:22;5.95;;;2.65;;
65162;SDS011;51751;55.714;37.436;2023-08-30T08:34:49;5.45;;;2.75;;
65162;SDS011;51751;55.714;37.436;2023-08-30T08:37:14;4.68;;;2.75;;
65162;SDS011;51751;55.714;37.436;2023-08-30T08:39:40;6.97;;;2.58;;
65162;SDS011;51751;55.714;37.436;2023-08-30T08:42:11;5.68;;;2.50;;
65162;SDS011;51751;55.714;37.436;2023-08-30T08:44:37;4.18;;;2.70;;
65162;SDS011;51751;55.714;37.436;2023-08-30T08:47:04;5.20;;;2.67;;
65162;SDS011;51751;55.714;37.436;2023-08-30T08:49:30;7.85;;;2.63;;
65162;SDS011;51751;55.714;37.436;2023-08-30T08:51:56;7.55;;;2.65;;
65162;SDS011;51751;55.714;37.436;2023-08-30T08:54:22;7.70;;;3.00;;
65162;SDS011;51751;55.714;37.436;2023-08-30T08:56:49;7.28;;;2.90;;
65162;SDS011;51751;55.714;37.436;2023-08-30T08:59:18;8.65;;;2.88;;
65162;SDS011;51751;55.714;37.436;2023-08-30T09:01:45;9.85;;;2.88;;
65162;SDS011;51751;55.714;37.436;2023-08-30T09:04:11;4.95;;;2.67;;
65162;SDS011;51751;55.714;37.436;2023-08-30T09:06:40;7.82;;;2.88;;
65162;SDS011;51751;55.714;37.436;2023-08-30T09:09:07;9.93;;;2.80;;
65162;SDS011;51751;55.714;37.436;2023-08-30T09:11:37;4.13;;;2.78;;
65162;SDS011;51751;55.714;37.436;2023-08-30T09:14:03;9.90;;;3.00;;
65162;SDS011;51751;55.714;37.436;2023-08-30T09:16:29;4.95;;;2.60;;
65162;SDS011;51751;55.714;37.436;2023-08-30T09:19:01;7.30;;;3.05;;
65162;SDS011;51751;55.714;37.436;2023-08-30T09:21:29;8.40;;;3.00;;
65162;SDS011;51751;55.714;37.436;2023-08-30T09:23:57;5.10;;;2.80;;
65162;SDS011;51751;55.714;37.436;2023-08-30T09:26:27;11.93;;;3.30;;
65162;SDS011;51751;55.714;37.436;2023-08-30T09:29:05;5.05;;;2.97;;
65162;SDS011;51751;55.714;37.436;2023-08-30T09:31:32;7.28;;;2.80;;
65162;SDS011;51751;55.714;37.436;2023-08-30T09:34:02;7.88;;;3.20;;
65162;SDS011;51751;55.714;37.436;2023-08-30T09:36:33;10.02;;;3.25;;
65162;SDS011;51751;55.714;37.436;2023-08-30T09:39:02;6.07;;;2.72;;
65162;SDS011;51751;55.714;37.436;2023-08-30T09:41:31;5.70;;;3.00;;
65162;SDS011;51751;55.714;37.436;2023-08-30T09:43:58;9.00;;;2.72;;
65162;SDS011;51751;55.714;37.436;2023-08-30T09:46:25;8.18;;;2.70;;
65162;SDS011;51751;55.714;37.436;2023-08-30T09:48:53;4.10;;;2.63;;
65162;SDS011;51751;55.714;37.436;2023-08-30T09:51:20;7.60;;;3.05;;
65162;SDS011;51751;55.714;37.436;2023-08-30T09:53:50;8.23;;;3.17;;
65162;SDS011;51751;55.714;37.436;2023-08-30T09:56:20;5.25;;;2.80;;
65162;SDS011;51751;55.714;37.436;2023-08-30T09:58:47;12.07;;;3.03;;
65162;SDS011;51751;55.714;37.436;2023-08-30T10:01:16;5.30;;;2.70;;
65162;SDS011;51751;55.714;37.436;2023-08-30T10:03:42;5.97;;;3.00;;
65162;SDS011;51751;55.714;37.436;2023-08-30T10:06:09;5.18;;;3.10;;
65162;SDS011;51751;55.714;37.436;2023-08-30T10:08:35;10.63;;;3.00;;
65162;SDS011;51751;55.714;37.436;2023-08-30T10:11:03;5.03;;;2.97;;
65162;SDS011;51751;55.714;37.436;2023-08-30T10:13:30;7.30;;;3.10;;
65162;SDS011;51751;55.714;37.436;2023-08-30T10:16:00;10.63;;;3.20;;
65162;SDS011;51751;55.714;37.436;2023-08-30T10:18:32;6.68;;;2.80;;
65162;SDS011;51751;55.714;37.436;2023-08-30T10:21:00;4.20;;;3.00;;
65162;SDS011;51751;55.714;37.436;2023-08-30T10:23:31;6.28;;;2.63;;
65162;SDS011;51751;55.714;37.436;2023-08-30T10:25:57;6.65;;;3.20;;
65162;SDS011;51751;55.714;37.436;2023-08-30T10:28:24;7.40;;;3.20;;
65162;SDS011;51751;55.714;37.436;2023-08-30T10:30:56;6.13;;;3.05;;
65162;SDS011;51751;55.714;37.436;2023-08-30T10:33:26;5.53;;;3.30;;
65162;SDS011;51751;55.714;37.436;2023-08-30T10:35:52;6.65;;;3.33;;
65162;SDS011;51751;55.714;37.436;2023-08-30T10:38:24;7.28;;;3.17;;
65162;SDS011;51751;55.714;37.436;2023-08-30T10:41:05;6.80;;;3.25;;
65162;SDS011;51751;55.714;37.436;2023-08-30T10:43:33;9.07;;;3.20;;
65162;SDS011;51751;55.714;37.436;2023-08-30T10:46:03;3.70;;;2.80;;
65162;SDS011;51751;55.714;37.436;2023-08-30T10:48:35;6.78;;;3.08;;
65162;SDS011;51751;55.714;37.436;2023-08-30T10:51:06;8.10;;;3.10;;
65162;SDS011;51751;55.714;37.436;2023-08-30T10:53:58;8.05;;;2.90;;
65162;SDS011;51751;55.714;37.436;2023-08-30T10:56:27;5.60;;;3.20;;
65162;SDS011;51751;55.714;37.436;2023-08-30T10:58:55;8.57;;;3.13;;
65162;SDS011;51751;55.714;37.436;2023-08-30T11:01:20;8.18;;;3.20;;
65162;SDS011;51751;55.714;37.436;2023-08-30T11:03:51;6.22;;;2.88;;
65162;SDS011;51751;55.714;37.436;2023-08-30T11:06:17;5.60;;;2.53;;
65162;SDS011;51751;55.714;37.436;2023-08-30T11:08:43;7.75;;;3.20;;
65162;SDS011;51751;55.714;37.436;2023-08-30T11:11:09;11.90;;;3.03;;
65162;SDS011;51751;55.714;37.436;2023-08-30T11:13:37;8.77;;;2.80;;
65162;SDS011;51751;55.714;37.436;2023-08-30T11:16:04;4.25;;;2.92;;
65162;SDS011;51751;55.714;37.436;2023-08-30T11:18:30;5.45;;;2.63;;
65162;SDS011;51751;55.714;37.436;2023-08-30T11:21:00;5.90;;;2.67;;
65162;SDS011;51751;55.714;37.436;2023-08-30T11:23:29;5.75;;;2.90;;
65162;SDS011;51751;55.714;37.436;2023-08-30T11:25:55;11.38;;;3.45;;
65162;SDS011;51751;55.714;37.436;2023-08-30T11:28:22;10.27;;;2.90;;
65162;SDS011;51751;55.714;37.436;2023-08-30T11:30:48;8.77;;;3.17;;
65162;SDS011;51751;55.714;37.436;2023-08-30T11:33:18;9.77;;;2.80;;
65162;SDS011;51751;55.714;37.436;2023-08-30T11:35:48;6.45;;;2.60;;
65162;SDS011;51751;55.714;37.436;2023-08-30T11:38:15;3.97;;;2.70;;
65162;SDS011;51751;55.714;37.436;2023-08-30T11:40:41;14.45;;;2.90;;
65162;SDS011;51751;55.714;37.436;2023-08-30T11:43:07;8.90;;;3.00;;
65162;SDS011;51751;55.714;37.436;2023-08-30T11:45:38;4.63;;;2.70;;
65162;SDS011;51751;55.714;37.436;2023-08-30T11:48:04;7.28;;;2.75;;
65162;SDS011;51751;55.714;37.436;2023-08-30T11:50:31;7.68;;;2.72;;
65162;SDS011;51751;55.714;37.436;2023-08-30T11:52:57;3.78;;;2.40;;
65162;SDS011;51751;55.714;37.436;2023-08-30T11:55:23;5.05;;;3.00;;
65162;SDS011;51751;55.714;37.436;2023-08-30T11:57:50;5.88;;;2.75;;
65162;SDS011;51751;55.714;37.436;2023-08-30T12:00:18;8.50;;;2.50;;
65162;SDS011;51751;55.714;37.436;2023-08-30T12:02:47;4.82;;;2.45;;
65162;SDS011;51751;55.714;37.436;2023-08-30T12:05:13;8.05;;;2.65;;
65162;SDS011;51751;55.714;37.436;2023-08-30T12:07:40;3.58;;;2.60;;
65162;SDS011;51751;55.714;37.436;2023-08-30T12:10:06;6.97;;;2.60;;
65162;SDS011;51751;55.714;37.436;2023-08-30T12:12:33;9.18;;;2.88;;
65162;SDS011;51751;55.714;37.436;2023-08-30T12:15:12;4.50;;;2.55;;
65162;SDS011;51751;55.714;37.436;2023-08-30T12:17:39;8.27;;;2.63;;
65162;SDS011;51751;55.714;37.436;2023-08-30T12:20:05;6.85;;;2.67;;
65162;SDS011;51751;55.714;37.436;2023-08-30T12:22:38;11.27;;;2.55;;
65162;SDS011;51751;55.714;37.436;2023-08-30T12:25:20;5.72;;;2.60;;
65162;SDS011;51751;55.714;37.436;2023-08-30T12:27:48;4.18;;;2.63;;
65162;SDS011;51751;55.714;37.436;2023-08-30T12:30:14;5.65;;;2.50;;
65162;SDS011;51751;55.714;37.436;2023-08-30T12:32:43;7.95;;;2.70;;
65162;SDS011;51751;55.714;37.436;2023-08-30T12:35:09;5.28;;;2.45;;
65162;SDS011;51751;55.714;37.436;2023-08-30T12:37:36;3.83;;;2.25;;
65162;SDS011;51751;55.714;37.436;2023-08-30T12:40:02;5.18;;;2.50;;
65162;SDS011;51751;55.714;37.436;2023-08-30T12:42:32;5.65;;;2.50;;
65162;SDS011;51751;55.714;37.436;2023-08-30T12:44:58;5.70;;;2.38;;
65162;SDS011;51751;55.714;37.436;2023-08-30T12:47:27;4.88;;;2.80;;
65162;SDS011;51751;55.714;37.436;2023-08-30T12:49:53;5.82;;;2.53;;
65162;SDS011;51751;55.714;37.436;2023-08-30T12:52:19;7.45;;;2.58;;
65162;SDS011;51751;55.714;37.436;2023-08-30T12:54:54;9.57;;;3.13;;
65162;SDS011;51751;55.714;37.436;2023-08-30T12:57:26;4.32;;;2.67;;
65162;SDS011;51751;55.714;37.436;2023-08-30T12:59:52;9.30;;;2.30;;
65162;SDS011;51751;55.714;37.436;2023-08-30T13:02:17;10.20;;;2.80;;
65162;SDS011;51751;55.714;37.436;2023-08-30T13:04:43;6.28;;;2.20;;
65162;SDS011;51751;55.714;37.436;2023-08-30T13:07:10;5.13;;;2.42;;
65162;SDS011;51751;55.714;37.436;2023-08-30T13:09:36;5.85;;;2.78;;
65162;SDS011;51751;55.714;37.436;2023-08-30T13:12:03;3.45;;;2.40;;
65162;SDS011;51751;55.714;37.436;2023-08-30T13:14:29;7.95;;;2.67;;
65162;SDS011;51751;55.714;37.436;2023-08-30T13:16:55;7.47;;;2.20;;
65162;SDS011;51751;55.714;37.436;2023-08-30T13:19:21;4.63;;;2.55;;
65162;SDS011;51751;55.714;37.436;2023-08-30T13:21:52;7.45;;;2.45;;
65162;SDS011;51751;55.714;37.436;2023-08-30T13:24:19;8.85;;;2.55;;
65162;SDS011;51751;55.714;37.436;2023-08-30T13:26:45;12.70;;;2.50;;
65162;SDS011;51751;55.714;37.436;2023-08-30T13:29:11;11.38;;;2.28;;
65162;SDS011;51751;55.714;37.436;2023-08-30T13:31:42;9.02;;;2.45;;
65162;SDS011;51751;55.714;37.436;2023-08-30T13:34:11;9.77;;;2.70;;
65162;SDS011;51751;55.714;37.436;2023-08-30T13:36:39;7.85;;;2.90;;
65162;SDS011;51751;55.714;37.436;2023-08-30T13:39:05;4.15;;;2.60;;
65162;SDS011;51751;55.714;37.436;2023-08-30T13:41:31;6.72;;;3.15;;
65162;SDS011;51751;55.714;37.436;2023-08-30T13:43:57;9.80;;;3.00;;
65162;SDS011;51751;55.714;37.436;2023-08-30T13:46:23;8.48;;;2.80;;
65162;SDS011;51751;55.714;37.436;2023-08-30T13:48:49;12.25;;;2.80;;
65162;SDS011;51751;55.714;37.436;2023-08-30T13:51:20;12.43;;;3.00;;
65162;SDS011;51751;55.714;37.436;2023-08-30T13:53:55;10.60;;;3.20;;
65162;SDS011;51751;55.714;37.436;2023-08-30T13:56:22;7.00;;;3.17;;
65162;SDS011;51751;55.714;37.436;2023-08-30T13:58:51;12.73;;;3.03;;
65162;SDS011;51751;55.714;37.436;2023-08-30T14:01:17;8.73;;;2.80;;
65162;SDS011;51751;55.714;37.436;2023-08-30T14:03:43;6.90;;;3.05;;
65162;SDS011;51751;55.714;37.436;2023-08-30T14:06:09;10.65;;;3.17;;
65162;SDS011;51751;55.714;37.436;2023-08-30T14:08:38;8.73;;;3.10;;
65162;SDS011;51751;55.714;37.436;2023-08-30T14:11:04;6.90;;;3.08;;
65162;SDS011;51751;55.714;37.436;2023-08-30T14:13:32;9.10;;;3.00;;
65162;SDS011;51751;55.714;37.436;2023-08-30T14:16:02;8.13;;;2.90;;
65162;SDS011;51751;55.714;37.436;2023-08-30T14:18:31;8.68;;;3.17;;
65162;SDS011;51751;55.714;37.436;2023-08-30T14:20:58;6.88;;;3.42;;
65162;SDS011;51751;55.714;37.436;2023-08-30T14:23:28;8.05;;;3.00;;
65162;SDS011;51751;55.714;37.436;2023-08-30T14:25:55;6.80;;;3.35;;
65162;SDS011;51751;55.714;37.436;2023-08-30T14:28:25;7.90;;;3.30;;
65162;SDS011;51751;55.714;37.436;2023-08-30T14:30:52;10.10;;;3.15;;
65162;SDS011;51751;55.714;37.436;2023-08-30T14:33:19;8.35;;;3.67;;
65162;SDS011;51751;55.714;37.436;2023-08-30T14:35:46;13.77;;;4.20;;
65162;SDS011;51751;55.714;37.436;2023-08-30T14:38:14;9.15;;;4.00;;
65162;SDS011;51751;55.714;37.436;2023-08-30T14:40:40;10.00;;;3.88;;
65162;SDS011;51751;55.714;37.436;2023-08-30T14:43:06;13.85;;;4.20;;
65162;SDS011;51751;55.714;37.436;2023-08-30T14:45:32;10.85;;;3.90;;